Posse, Brazil
Current Conditions -  °F | °C
As of 3:00 AM on Friday 28 Nov 2014 (Local Time) from SBBR Reporting Station
Broken Clouds Broken Clouds  
Wind Chill: 70°   Ceiling: 7000
Heat Index: 70°   Visibility: 6mi
Dew Point: 66°   Wind: 6mph
Humidity: 88%   Direction: 200°SSW
Pressure: 30"   Gusts: NA
Location:  14.09°S, 46.37°W
Report Text: SBBR 280500Z 20005KT 9999 FEW020 BKN070 21/19 Q1016
Loading
Personal Weather Stations






























Interactive Weather Map New forecast layout! Learn more

10-Day Weather Forecast

Advertisements
Track Severe Weather on mobile